Time;durP1;ratioP1;P1;durP2;ratioP2;P2;SDS_P1;SDS_P2;PMS_P1;PMS_P2;Temp;Humidity;BMP_temperature;BMP_pressure;BME280_temperature;BME280_humidity;BME280_pressure;Samples;Min_cycle;Max_cycle;Signal;HPM_P1;HPM_P2
2022/11/26 00:01:39;;;;;;;20.35;3.70;;;7.50;99.90;;;;;;4994690;28;20022;-37
2022/11/26 00:04:05;;;;;;;10.95;3.53;;;7.60;99.90;;;;;;4990585;28;20030;-40
2022/11/26 00:06:38;;;;;;;9.07;3.17;;;7.50;99.90;;;;;;4991231;28;20105;-42
2022/11/26 00:09:06;;;;;;;10.93;2.72;;;7.60;99.90;;;;;;4989916;28;20030;-41
2022/11/26 00:11:32;;;;;;;9.73;2.25;;;7.60;99.90;;;;;;4992942;28;20033;-38
2022/11/26 00:13:57;;;;;;;7.88;2.60;;;7.60;99.90;;;;;;4992495;28;20049;-42
2022/11/26 00:16:23;;;;;;;9.90;2.42;;;7.60;99.90;;;;;;4987162;28;20496;-37
2022/11/26 00:18:48;;;;;;;14.50;2.90;;;7.60;99.90;;;;;;4987151;28;20050;-43
2022/11/26 00:21:23;;;;;;;11.40;2.67;;;7.60;99.90;;;;;;4993658;28;20489;-44
2022/11/26 00:23:49;;;;;;;9.30;2.72;;;7.60;99.90;;;;;;4992706;28;20028;-44
2022/11/26 00:26:20;;;;;;;14.00;3.42;;;7.60;99.90;;;;;;4993037;28;20042;-42
2022/11/26 00:28:59;;;;;;;9.63;2.65;;;7.60;99.90;;;;;;4984727;28;20042;-40
2022/11/26 00:31:25;;;;;;;19.08;2.90;;;7.50;99.90;;;;;;4987379;28;20089;-43
2022/11/26 00:33:51;;;;;;;18.23;2.28;;;7.50;99.90;;;;;;4992400;28;20037;-41
2022/11/26 00:36:27;;;;;;;21.50;5.53;;;7.50;99.90;;;;;;4991576;28;20498;-43
2022/11/26 00:39:01;;;;;;;14.93;4.28;;;7.50;99.90;;;;;;4993853;28;20026;-46
2022/11/26 00:41:31;;;;;;;11.35;2.92;;;7.50;99.90;;;;;;4994081;28;20040;-41
2022/11/26 00:43:57;;;;;;;8.57;2.58;;;7.50;99.90;;;;;;4984548;28;20031;-40
2022/11/26 00:46:23;;;;;;;7.10;1.95;;;7.50;99.90;;;;;;4991604;28;20335;-44
2022/11/26 00:48:49;;;;;;;16.02;3.22;;;7.40;99.90;;;;;;4985563;28;20026;-42
2022/11/26 00:51:24;;;;;;;17.10;3.47;;;7.50;99.90;;;;;;4990162;28;20074;-41
2022/11/26 00:53:53;;;;;;;10.60;2.78;;;7.40;99.90;;;;;;4974158;28;20406;-40
2022/11/26 00:56:22;;;;;;;14.43;2.92;;;7.40;99.90;;;;;;4993399;28;20034;-36
2022/11/26 00:58:49;;;;;;;7.82;2.80;;;7.40;99.90;;;;;;4987858;28;20034;-43
2022/11/26 01:01:28;;;;;;;16.60;3.28;;;7.50;99.90;;;;;;4985755;28;20504;-35
2022/11/26 01:03:54;;;;;;;4.45;2.38;;;7.40;99.90;;;;;;4967032;28;20062;-37
2022/11/26 01:06:28;;;;;;;6.05;2.72;;;7.40;99.90;;;;;;4989831;28;20068;-34
2022/11/26 01:08:53;;;;;;;13.43;3.20;;;7.40;99.90;;;;;;4990629;28;20030;-37
2022/11/26 01:11:21;;;;;;;9.68;2.60;;;7.40;99.90;;;;;;4990710;28;20581;-36
2022/11/26 01:13:49;;;;;;;9.90;2.95;;;7.30;99.90;;;;;;4994722;28;20038;-37
2022/11/26 01:16:14;;;;;;;;;;;7.30;99.90;;;;;;4989346;28;20114;-42
2022/11/26 01:18:40;;;;;;;5.72;1.55;;;7.30;99.90;;;;;;4987341;28;20017;-41
2022/11/26 01:21:12;;;;;;;10.35;2.65;;;7.30;99.90;;;;;;4981221;28;20084;-35
2022/11/26 01:23:37;;;;;;;18.63;3.35;;;7.30;99.90;;;;;;4999545;28;20501;-38
2022/11/26 01:26:03;;;;;;;7.95;2.60;;;7.20;99.90;;;;;;5006996;28;20026;-40
2022/11/26 01:28:29;;;;;;;11.57;3.00;;;7.20;99.90;;;;;;4993603;28;20038;-37
2022/11/26 01:30:54;;;;;;;7.00;2.83;;;7.20;99.90;;;;;;4991706;28;20110;-40
2022/11/26 01:33:20;;;;;;;13.65;3.42;;;7.20;99.90;;;;;;4991982;28;20039;-39
2022/11/26 01:35:45;;;;;;;11.25;3.97;;;7.20;99.90;;;;;;4990681;28;20087;-39
2022/11/26 01:38:14;;;;;;;14.40;3.15;;;7.10;99.90;;;;;;5006459;28;20471;-38
2022/11/26 01:40:52;;;;;;;11.20;2.70;;;7.20;99.90;;;;;;5003038;28;20102;-38
2022/11/26 01:43:27;;;;;;;9.52;3.08;;;7.20;99.90;;;;;;4984179;28;20027;-36
2022/11/26 01:45:55;;;;;;;14.25;3.08;;;7.20;99.90;;;;;;4987955;28;20101;-41
2022/11/26 01:48:32;;;;;;;9.65;2.97;;;7.20;99.90;;;;;;5001279;28;20030;-39
2022/11/26 01:51:23;;;;;;;16.02;3.88;;;7.20;99.90;;;;;;4997790;28;20049;-36
2022/11/26 01:53:53;;;;;;;8.75;3.38;;;7.10;99.90;;;;;;4991529;28;20030;-35
2022/11/26 01:56:46;;;;;;;10.63;3.13;;;7.00;99.90;;;;;;4990004;28;20033;-37
2022/11/26 01:59:24;;;;;;;11.45;3.50;;;7.10;99.90;;;;;;4989079;28;20014;-40
2022/11/26 02:01:56;;;;;;;17.85;3.45;;;7.00;99.90;;;;;;4984604;28;20018;-39
2022/11/26 02:04:44;;;;;;;10.43;2.97;;;7.00;99.90;;;;;;4986722;28;20518;-38
2022/11/26 02:07:10;;;;;;;13.73;3.83;;;7.00;99.90;;;;;;4986055;28;20077;-35
2022/11/26 02:09:36;;;;;;;10.75;2.65;;;7.00;99.90;;;;;;4987214;28;20038;-40
2022/11/26 02:12:02;;;;;;;12.73;3.25;;;7.10;99.90;;;;;;4988494;28;20561;-37
2022/11/26 02:14:34;;;;;;;14.27;2.72;;;7.00;99.90;;;;;;5006597;28;20030;-40
2022/11/26 02:20:10;;;;;;;11.50;3.47;;;7.00;99.90;;;;;;4993176;28;20049;-40
2022/11/26 02:22:48;;;;;;;15.27;4.32;;;7.00;99.90;;;;;;4991254;28;20035;-38
2022/11/26 02:25:16;;;;;;;13.02;3.92;;;7.00;99.90;;;;;;4994485;28;20027;-38
2022/11/26 02:27:56;;;;;;;9.68;3.60;;;7.00;99.90;;;;;;4980834;28;20022;-36
2022/11/26 02:30:22;;;;;;;17.65;3.40;;;7.00;99.90;;;;;;4995989;28;20594;-38
2022/11/26 02:33:05;;;;;;;17.50;4.28;;;6.90;99.90;;;;;;4996049;28;20026;-37
2022/11/26 02:35:48;;;;;;;13.05;4.13;;;7.00;99.90;;;;;;4997090;28;20045;-37
2022/11/26 02:38:22;;;;;;;21.05;4.25;;;7.00;99.90;;;;;;4996156;28;20085;-35
2022/11/26 02:40:49;;;;;;;11.63;3.53;;;7.00;99.90;;;;;;4994662;28;20495;-36
2022/11/26 02:43:15;;;;;;;28.02;4.30;;;6.90;99.90;;;;;;4996301;28;20470;-37
2022/11/26 02:45:45;;;;;;;12.40;3.60;;;6.90;99.90;;;;;;4997184;28;20042;-41
2022/11/26 02:48:17;;;;;;;9.90;4.00;;;6.90;99.90;;;;;;4994920;28;20034;-36
2022/11/26 02:50:47;;;;;;;11.77;3.55;;;7.00;99.90;;;;;;4996069;28;20033;-39
2022/11/26 02:53:15;;;;;;;11.98;3.03;;;7.00;99.90;;;;;;4997171;28;20474;-37
2022/11/26 02:55:45;;;;;;;10.13;3.58;;;7.00;99.90;;;;;;4996763;28;20037;-38
2022/11/26 02:58:14;;;;;;;10.02;3.47;;;7.00;99.90;;;;;;4995846;28;20057;-39
2022/11/26 03:00:41;;;;;;;12.45;3.83;;;6.90;99.90;;;;;;4994776;28;20026;-36
2022/11/26 03:03:15;;;;;;;14.40;4.10;;;7.00;99.90;;;;;;4995712;28;20030;-41
2022/11/26 03:05:42;;;;;;;16.52;4.25;;;6.90;99.90;;;;;;4995388;28;20541;-40
2022/11/26 03:08:07;;;;;;;15.55;4.13;;;6.90;99.90;;;;;;4995353;28;20184;-36
2022/11/26 03:10:33;;;;;;;15.20;4.57;;;6.90;99.90;;;;;;4993427;28;20105;-39
2022/11/26 03:12:59;;;;;;;20.67;5.05;;;6.90;99.90;;;;;;4995263;28;20030;-38
2022/11/26 03:15:25;;;;;;;9.20;3.13;;;6.90;99.90;;;;;;4983520;28;20043;-40
2022/11/26 03:17:50;;;;;;;15.25;3.53;;;6.90;99.90;;;;;;4994477;28;20046;-37
2022/11/26 03:20:16;;;;;;;14.60;4.45;;;7.00;99.90;;;;;;4992030;28;20050;-38
2022/11/26 03:22:42;;;;;;;18.55;4.43;;;6.90;99.90;;;;;;4996063;28;20467;-36
2022/11/26 03:25:09;;;;;;;13.60;4.28;;;7.00;99.90;;;;;;4994443;28;20027;-38
2022/11/26 03:27:34;;;;;;;14.85;4.10;;;7.00;99.90;;;;;;4996087;28;20513;-38
2022/11/26 03:30:00;;;;;;;16.52;4.95;;;7.00;99.90;;;;;;4996150;28;20023;-36
2022/11/26 03:32:26;;;;;;;22.05;5.13;;;7.00;99.90;;;;;;4996098;28;20034;-39
2022/11/26 03:34:51;;;;;;;17.88;3.88;;;7.00;99.90;;;;;;4993478;28;20439;-35
2022/11/26 03:37:17;;;;;;;12.82;4.78;;;7.20;99.90;;;;;;4995787;28;20112;-32
2022/11/26 03:39:43;;;;;;;11.25;4.25;;;7.20;99.90;;;;;;4974641;28;20039;-34
2022/11/26 03:42:09;;;;;;;12.00;4.20;;;7.20;99.90;;;;;;4995154;28;20435;-34
2022/11/26 03:44:35;;;;;;;15.77;4.72;;;7.20;99.90;;;;;;4993966;28;20030;-38
2022/11/26 03:47:00;;;;;;;13.13;5.22;;;7.20;99.90;;;;;;4995750;28;20105;-35
2022/11/26 03:49:26;;;;;;;31.23;4.43;;;7.20;99.90;;;;;;4991378;28;20054;-37
2022/11/26 03:51:52;;;;;;;19.98;4.38;;;7.20;99.90;;;;;;4995714;28;20505;-36
2022/11/26 03:54:18;;;;;;;17.65;5.32;;;7.20;99.90;;;;;;4993486;28;20030;-41
2022/11/26 03:56:43;;;;;;;14.85;4.65;;;7.20;99.90;;;;;;4995446;28;20077;-37
2022/11/26 03:59:09;;;;;;;11.70;4.03;;;7.20;99.90;;;;;;4989669;28;20026;-36
2022/11/26 04:01:35;;;;;;;20.65;4.80;;;7.20;99.90;;;;;;4995621;28;20031;-40
2022/11/26 04:04:00;;;;;;;14.80;4.45;;;7.20;99.90;;;;;;4993312;28;20105;-40
2022/11/26 04:06:26;;;;;;;17.23;4.32;;;7.20;99.90;;;;;;4993772;28;20418;-41
2022/11/26 04:08:51;;;;;;;15.40;4.75;;;7.20;99.90;;;;;;4993250;28;20027;-39
2022/11/26 04:11:17;;;;;;;12.63;4.60;;;7.20;99.90;;;;;;4992601;28;20481;-36
2022/11/26 04:13:42;;;;;;;14.55;4.22;;;7.20;99.90;;;;;;4973009;28;20442;-42
2022/11/26 04:16:09;;;;;;;9.35;4.07;;;7.20;99.90;;;;;;4990715;28;20034;-41
2022/11/26 04:18:34;;;;;;;25.60;5.78;;;7.20;99.90;;;;;;4973135;28;20409;-42
2022/11/26 04:21:00;;;;;;;17.77;5.28;;;7.30;99.90;;;;;;4992780;28;20026;-37
2022/11/26 04:23:26;;;;;;;13.20;4.78;;;7.30;99.90;;;;;;4993148;28;20030;-35
2022/11/26 04:25:51;;;;;;;17.23;5.00;;;7.20;99.90;;;;;;4992359;28;20031;-41
2022/11/26 04:28:17;;;;;;;23.25;6.47;;;7.20;99.90;;;;;;4988375;28;20402;-39
2022/11/26 04:30:43;;;;;;;19.65;4.35;;;7.20;99.90;;;;;;4990621;28;20446;-40
2022/11/26 04:33:08;;;;;;;14.77;4.80;;;7.20;99.90;;;;;;4994322;28;20050;-41
2022/11/26 04:35:34;;;;;;;17.35;4.50;;;7.20;99.90;;;;;;4993353;28;20077;-40
2022/11/26 04:38:00;;;;;;;32.05;5.15;;;7.10;99.90;;;;;;4992018;28;20034;-44
2022/11/26 04:40:26;;;;;;;23.90;4.72;;;7.10;99.90;;;;;;4994057;28;20084;-44
2022/11/26 04:42:51;;;;;;;11.90;4.45;;;7.10;99.90;;;;;;4992675;28;20048;-43
2022/11/26 04:45:17;;;;;;;15.75;4.78;;;7.10;99.90;;;;;;4991842;28;20026;-43
2022/11/26 04:47:42;;;;;;;17.35;4.75;;;7.10;99.90;;;;;;4991551;28;20030;-40
2022/11/26 04:50:09;;;;;;;23.05;5.45;;;7.00;99.90;;;;;;4990714;28;20045;-45
2022/11/26 04:52:34;;;;;;;11.02;4.55;;;7.10;99.90;;;;;;4993223;28;20030;-47
2022/11/26 04:55:00;;;;;;;21.50;5.30;;;7.00;99.90;;;;;;4993466;28;20083;-43
2022/11/26 04:57:26;;;;;;;19.35;4.60;;;7.00;99.90;;;;;;4993627;28;20038;-43
2022/11/26 04:59:51;;;;;;;11.50;4.95;;;7.00;99.90;;;;;;4972536;28;20514;-38
2022/11/26 05:02:17;;;;;;;13.63;5.15;;;7.00;99.90;;;;;;4991950;28;20076;-42
2022/11/26 05:04:43;;;;;;;15.77;4.47;;;7.00;99.90;;;;;;4989735;28;20466;-39
2022/11/26 05:07:08;;;;;;;19.60;5.18;;;6.90;99.90;;;;;;4992473;28;20030;-34
2022/11/26 05:09:34;;;;;;;12.05;4.68;;;7.00;99.90;;;;;;4992201;28;20030;-40
2022/11/26 05:11:59;;;;;;;15.98;4.43;;;7.00;99.90;;;;;;4994539;28;20493;-37
2022/11/26 05:14:25;;;;;;;8.60;4.43;;;7.00;99.90;;;;;;4991376;28;20451;-38
2022/11/26 05:16:51;;;;;;;16.13;4.47;;;7.00;99.90;;;;;;4987863;28;20037;-40
2022/11/26 05:19:16;;;;;;;15.00;5.03;;;7.00;99.90;;;;;;4990190;28;20034;-38
2022/11/26 05:21:42;;;;;;;21.38;4.80;;;7.00;99.90;;;;;;4992920;28;20034;-38
2022/11/26 05:24:08;;;;;;;19.40;5.18;;;7.00;99.90;;;;;;4992922;28;20034;-36
2022/11/26 05:26:33;;;;;;;18.85;5.65;;;7.00;99.90;;;;;;4975424;28;20529;-40
2022/11/26 05:28:59;;;;;;;13.38;5.53;;;7.00;99.90;;;;;;4963799;28;20035;-36
2022/11/26 05:31:24;;;;;;;20.08;5.70;;;7.00;99.90;;;;;;4990249;28;20030;-36
2022/11/26 05:33:50;;;;;;;16.30;5.90;;;7.00;99.90;;;;;;4992660;28;20493;-37
2022/11/26 05:36:15;;;;;;;25.08;7.72;;;7.00;99.90;;;;;;4992710;28;20034;-39
2022/11/26 05:38:41;;;;;;;21.67;5.78;;;7.00;99.90;;;;;;4992699;28;20495;-39
2022/11/26 05:41:07;;;;;;;16.52;5.75;;;7.00;99.90;;;;;;4993776;28;20044;-38
2022/11/26 05:43:32;;;;;;;20.27;6.28;;;7.00;99.90;;;;;;4993738;28;20026;-39
2022/11/26 05:46:06;;;;;;;24.83;6.22;;;7.00;99.90;;;;;;4992370;28;20402;-34
2022/11/26 05:48:32;;;;;;;19.25;6.05;;;7.00;99.90;;;;;;4990341;28;20026;-38
2022/11/26 05:51:01;;;;;;;23.67;7.88;;;7.00;99.90;;;;;;4975388;28;20566;-38
2022/11/26 05:53:27;;;;;;;24.30;6.35;;;7.00;99.90;;;;;;4991817;28;20035;-37
2022/11/26 05:55:53;;;;;;;17.88;5.55;;;7.00;99.90;;;;;;4991798;28;20026;-47
2022/11/26 05:58:19;;;;;;;27.77;7.20;;;7.00;99.90;;;;;;4990726;28;20471;-39
2022/11/26 06:00:44;;;;;;;22.85;6.78;;;7.00;99.90;;;;;;4970445;28;20483;-36
2022/11/26 06:03:10;;;;;;;23.60;6.40;;;7.00;99.90;;;;;;4991147;28;20070;-36
2022/11/26 06:05:35;;;;;;;21.55;6.72;;;7.10;99.90;;;;;;4990985;28;20427;-41
2022/11/26 06:08:01;;;;;;;19.88;6.57;;;7.00;99.90;;;;;;4985649;28;20032;-34
2022/11/26 06:10:27;;;;;;;22.48;5.97;;;7.00;99.90;;;;;;4992158;28;20441;-38
2022/11/26 06:12:52;;;;;;;27.10;7.75;;;7.10;99.90;;;;;;4992638;28;20386;-38
2022/11/26 06:15:18;;;;;;;18.88;6.47;;;7.10;99.90;;;;;;4990544;28;20034;-39
2022/11/26 06:17:44;;;;;;;24.73;6.65;;;7.00;99.90;;;;;;4987154;28;20023;-41
2022/11/26 06:20:10;;;;;;;17.02;6.40;;;7.00;99.90;;;;;;4989199;28;20070;-37
2022/11/26 06:22:40;;;;;;;20.95;5.72;;;7.00;99.90;;;;;;4992554;28;20030;-40
2022/11/26 06:25:08;;;;;;;22.50;6.18;;;7.00;99.90;;;;;;4991722;28;20398;-37
2022/11/26 06:27:52;;;;;;;22.25;7.20;;;7.00;99.90;;;;;;4989521;28;20102;-36
2022/11/26 06:30:18;;;;;;;22.08;5.85;;;7.00;99.90;;;;;;4986955;28;20789;-42
2022/11/26 06:32:43;;;;;;;24.23;7.00;;;7.00;99.90;;;;;;4990716;28;20441;-45
2022/11/26 06:35:09;;;;;;;18.67;6.38;;;7.00;99.90;;;;;;4987003;28;20129;-41
2022/11/26 06:37:35;;;;;;;32.95;7.22;;;7.00;99.90;;;;;;4989700;28;20035;-43
2022/11/26 06:40:01;;;;;;;20.33;6.00;;;7.00;99.90;;;;;;4990414;28;20034;-44
2022/11/26 06:42:27;;;;;;;23.23;6.63;;;7.00;99.90;;;;;;4988751;28;20505;-54
2022/11/26 06:44:52;;;;;;;17.70;6.60;;;7.00;99.90;;;;;;4991257;28;20383;-37
2022/11/26 06:47:18;;;;;;;28.05;7.40;;;7.00;99.90;;;;;;4991094;28;20105;-35
2022/11/26 06:49:43;;;;;;;16.10;6.20;;;6.90;99.90;;;;;;4991475;28;20037;-42
2022/11/26 06:52:09;;;;;;;21.40;6.82;;;6.90;99.90;;;;;;4989765;28;20038;-42
2022/11/26 06:54:34;;;;;;;26.50;6.72;;;6.90;99.90;;;;;;4991807;28;20031;-35
2022/11/26 06:57:00;;;;;;;14.18;5.93;;;6.90;99.90;;;;;;4990682;28;20505;-40
2022/11/26 06:59:26;;;;;;;25.05;6.90;;;6.90;99.90;;;;;;4988012;28;20046;-36
2022/11/26 07:01:51;;;;;;;22.17;6.25;;;6.90;99.90;;;;;;4991893;28;20477;-35
2022/11/26 07:04:17;;;;;;;18.83;6.13;;;6.90;99.90;;;;;;4990515;28;20030;-39
2022/11/26 07:06:44;;;;;;;23.67;6.45;;;6.90;99.90;;;;;;4986002;28;20510;-37
2022/11/26 07:09:11;;;;;;;22.85;8.55;;;6.90;99.90;;;;;;5004015;28;20514;-38
2022/11/26 07:11:37;;;;;;;27.85;6.20;;;6.90;99.90;;;;;;4994221;28;20091;-39
2022/11/26 07:14:04;;;;;;;18.40;5.55;;;7.00;99.90;;;;;;4991301;28;20038;-39
2022/11/26 07:16:29;;;;;;;13.23;5.25;;;7.00;99.90;;;;;;4992741;28;20494;-38
2022/11/26 07:18:57;;;;;;;17.50;6.80;;;7.00;99.90;;;;;;4968026;28;20122;-38
2022/11/26 07:21:23;;;;;;;19.73;6.30;;;7.00;99.90;;;;;;4990345;28;20039;-35
2022/11/26 07:23:50;;;;;;;17.88;6.13;;;7.10;99.90;;;;;;4977289;28;20034;-41
2022/11/26 07:26:17;;;;;;;23.67;7.03;;;7.10;99.90;;;;;;4995107;28;20066;-44
2022/11/26 07:28:43;;;;;;;34.08;6.70;;;7.10;99.90;;;;;;4996171;28;20482;-37
2022/11/26 07:31:14;;;;;;;21.05;5.88;;;7.20;99.90;;;;;;4995433;28;20018;-36
2022/11/26 07:33:40;;;;;;;23.70;6.05;;;7.20;99.90;;;;;;5003874;28;20101;-39
2022/11/26 07:36:24;;;;;;;18.40;5.70;;;7.20;99.90;;;;;;4995070;28;20081;-38
2022/11/26 07:38:52;;;;;;;17.55;4.95;;;7.20;99.90;;;;;;5003338;28;20022;-39
2022/11/26 07:41:18;;;;;;;16.38;5.38;;;7.30;99.90;;;;;;4995214;28;20048;-38
2022/11/26 07:43:45;;;;;;;16.65;6.00;;;7.30;99.90;;;;;;4995850;28;20033;-41
2022/11/26 07:46:13;;;;;;;17.52;6.18;;;7.40;99.90;;;;;;4992496;28;20031;-35
2022/11/26 07:48:39;;;;;;;;;;;7.30;99.90;;;;;;4993907;28;20364;-40
2022/11/26 07:51:18;;;;;;;14.50;5.40;;;7.30;99.90;;;;;;4994862;28;19955;-38
2022/11/26 07:53:44;;;;;;;21.40;5.47;;;7.30;99.90;;;;;;4997374;28;20073;-40
2022/11/26 07:56:10;;;;;;;21.15;6.93;;;7.40;99.90;;;;;;5001059;28;20479;-40
2022/11/26 07:58:36;;;;;;;20.48;6.63;;;7.40;99.90;;;;;;4967652;28;20065;-40
2022/11/26 08:01:10;;;;;;;24.90;5.47;;;7.40;99.90;;;;;;4990909;28;20055;-41
2022/11/26 08:03:38;;;;;;;25.63;4.82;;;7.50;99.90;;;;;;4994248;28;20548;-39
2022/11/26 08:06:08;;;;;;;17.05;5.05;;;7.60;99.90;;;;;;4993184;28;20026;-40
2022/11/26 08:08:35;;;;;;;19.00;5.70;;;7.60;99.90;;;;;;4983646;28;20022;-36
2022/11/26 08:11:02;;;;;;;19.83;5.88;;;7.60;99.90;;;;;;4992332;28;20035;-38
2022/11/26 08:13:30;;;;;;;14.80;5.57;;;7.70;99.90;;;;;;4992642;28;20033;-38
2022/11/26 08:15:56;;;;;;;15.45;4.97;;;7.80;99.90;;;;;;4972535;28;20043;-38
2022/11/26 08:18:22;;;;;;;21.00;4.95;;;7.80;99.90;;;;;;4991110;28;20026;-38
2022/11/26 08:20:55;;;;;;;14.80;5.18;;;7.80;99.90;;;;;;4991288;28;20037;-37
2022/11/26 08:23:40;;;;;;;17.15;5.35;;;7.80;99.90;;;;;;4988805;28;20356;-38
2022/11/26 08:26:12;;;;;;;20.13;5.55;;;8.00;99.90;;;;;;4989386;28;20088;-39
2022/11/26 08:28:38;;;;;;;14.60;4.47;;;8.00;99.90;;;;;;4993559;28;20430;-37
2022/11/26 08:31:06;;;;;;;11.40;4.03;;;8.00;99.90;;;;;;4990773;28;20105;-39
2022/11/26 08:33:33;;;;;;;20.75;5.68;;;8.10;99.90;;;;;;4988899;28;20038;-39
2022/11/26 08:35:58;;;;;;;23.13;6.68;;;8.10;99.90;;;;;;4991722;28;20193;-40
2022/11/26 08:38:26;;;;;;;28.67;5.07;;;8.20;99.90;;;;;;4994387;28;20101;-40
2022/11/26 08:40:53;;;;;;;25.75;5.38;;;8.20;99.90;;;;;;4989263;28;20038;-35
2022/11/26 08:43:19;;;;;;;18.73;5.30;;;8.20;99.90;;;;;;4985679;28;20026;-40
2022/11/26 08:45:52;;;;;;;17.23;5.68;;;8.30;99.90;;;;;;4985781;28;20034;-36
2022/11/26 08:48:28;;;;;;;20.55;4.32;;;8.30;99.90;;;;;;4992226;28;20482;-41
2022/11/26 08:50:58;;;;;;;15.40;4.20;;;8.30;99.90;;;;;;4980475;28;20129;-40
2022/11/26 08:53:24;;;;;;;12.02;4.10;;;8.40;99.90;;;;;;4989478;28;20041;-38
2022/11/26 08:55:50;;;;;;;20.20;4.75;;;8.40;99.90;;;;;;4990373;28;20047;-41
2022/11/26 08:58:15;;;;;;;25.15;5.00;;;8.50;99.90;;;;;;4993157;28;20030;-38
2022/11/26 09:00:41;;;;;;;15.40;5.45;;;8.50;99.90;;;;;;4991659;28;20049;-35
2022/11/26 09:03:07;;;;;;;21.60;4.78;;;8.50;99.90;;;;;;4991162;28;20050;-40
2022/11/26 09:05:35;;;;;;;25.65;7.78;;;8.50;99.90;;;;;;4991227;28;20030;-42
2022/11/26 09:08:01;;;;;;;22.10;5.75;;;8.50;99.90;;;;;;4990471;28;20143;-41
2022/11/26 09:10:27;;;;;;;15.35;4.65;;;8.50;99.90;;;;;;4987719;28;20622;-44
2022/11/26 09:12:52;;;;;;;11.40;5.50;;;8.60;99.90;;;;;;4992207;28;20026;-40
2022/11/26 09:15:18;;;;;;;19.35;4.32;;;8.70;99.90;;;;;;4992221;28;20483;-38
2022/11/26 09:17:44;;;;;;;23.13;5.32;;;8.70;99.90;;;;;;4988339;28;20629;-41
2022/11/26 09:20:11;;;;;;;16.25;5.43;;;8.70;99.90;;;;;;4988721;28;20438;-39
2022/11/26 09:22:37;;;;;;;19.05;4.85;;;8.70;99.90;;;;;;4993652;28;20383;-38
2022/11/26 09:25:03;;;;;;;26.67;4.72;;;8.70;99.90;;;;;;4992447;28;20030;-36
2022/11/26 09:27:28;;;;;;;13.05;5.07;;;8.70;99.90;;;;;;4990515;28;20026;-41
2022/11/26 09:29:55;;;;;;;21.17;5.32;;;8.70;99.90;;;;;;4985918;28;20034;-41
2022/11/26 09:32:20;;;;;;;25.38;5.47;;;8.70;99.90;;;;;;4991273;28;20081;-39
2022/11/26 09:35:05;;;;;;;19.67;5.18;;;8.80;99.90;;;;;;4975047;28;20066;-40
2022/11/26 09:37:31;;;;;;;21.17;5.85;;;8.80;99.90;;;;;;4998205;28;20029;-41
2022/11/26 09:39:56;;;;;;;18.48;4.80;;;8.80;99.90;;;;;;4991364;28;20504;-41
2022/11/26 09:42:32;;;;;;;12.80;4.72;;;8.70;99.90;;;;;;4997450;28;20068;-41
2022/11/26 09:45:30;;;;;;;21.10;4.53;;;8.80;99.90;;;;;;4992288;28;20042;-40
2022/11/26 09:47:57;;;;;;;17.83;4.70;;;8.70;99.90;;;;;;4976197;28;20461;-37
2022/11/26 09:50:30;;;;;;;26.60;6.22;;;8.70;99.90;;;;;;4984823;28;20494;-39
2022/11/26 09:53:12;;;;;;;20.90;5.60;;;8.70;99.90;;;;;;4992923;28;20085;-42
2022/11/26 09:55:42;;;;;;;17.83;4.40;;;8.70;99.90;;;;;;4988456;28;20497;-40
2022/11/26 09:58:26;;;;;;;11.52;4.18;;;8.70;99.90;;;;;;4991133;28;20042;-36
2022/11/26 10:00:57;;;;;;;28.08;7.30;;;8.70;99.90;;;;;;4990181;28;20031;-39
2022/11/26 10:03:30;;;;;;;20.50;4.90;;;8.80;99.90;;;;;;4991354;28;20474;-39
2022/11/26 10:06:29;;;;;;;16.77;4.75;;;8.90;99.90;;;;;;4955773;28;20050;-39
2022/11/26 10:09:01;;;;;;;20.20;6.15;;;8.90;99.90;;;;;;4988457;28;20041;-41
2022/11/26 10:11:43;;;;;;;13.98;4.55;;;9.00;99.90;;;;;;4991698;28;20062;-37
2022/11/26 10:14:33;;;;;;;18.98;4.93;;;9.10;99.90;;;;;;4991073;28;20118;-41
2022/11/26 10:17:14;;;;;;;20.98;4.97;;;9.20;99.90;;;;;;4990656;28;20038;-38
2022/11/26 10:19:48;;;;;;;16.40;5.80;;;9.30;99.90;;;;;;4989601;28;20055;-40
2022/11/26 10:22:27;;;;;;;17.85;5.20;;;9.40;99.90;;;;;;4992458;28;20038;-42
2022/11/26 10:24:55;;;;;;;11.15;5.28;;;9.50;99.90;;;;;;4990284;28;20056;-42
2022/11/26 10:27:25;;;;;;;11.98;4.90;;;9.60;99.90;;;;;;4990323;28;20038;-38
2022/11/26 10:30:00;;;;;;;24.17;5.85;;;9.80;99.90;;;;;;4987792;28;20101;-43
2022/11/26 10:32:37;;;;;;;21.50;6.10;;;10.10;99.90;;;;;;4970022;28;20034;-42
2022/11/26 10:35:04;;;;;;;30.40;5.75;;;10.20;99.90;;;;;;4985472;28;20430;-45
2022/11/26 10:37:29;;;;;;;24.80;5.47;;;10.40;99.90;;;;;;4989039;28;20035;-45
2022/11/26 10:40:06;;;;;;;14.70;4.43;;;10.50;99.90;;;;;;4990569;28;20501;-37
2022/11/26 10:42:41;;;;;;;15.32;4.47;;;10.60;99.90;;;;;;4988562;28;20035;-47
2022/11/26 10:45:25;;;;;;;21.27;5.70;;;10.50;99.90;;;;;;4993396;28;20497;-47
2022/11/26 10:47:51;;;;;;;12.90;4.35;;;10.70;99.90;;;;;;4989370;28;20433;-46
2022/11/26 10:50:24;;;;;;;11.30;4.60;;;10.70;99.90;;;;;;4997159;28;20109;-44
2022/11/26 10:52:51;;;;;;;15.93;4.78;;;10.70;99.90;;;;;;4996749;28;20478;-46
2022/11/26 10:55:27;;;;;;;21.70;4.32;;;10.70;99.90;;;;;;4994422;28;20022;-49
2022/11/26 10:58:01;;;;;;;18.58;4.70;;;10.80;99.90;;;;;;4984198;28;20037;-53
2022/11/26 11:00:33;;;;;;;28.55;6.13;;;10.80;99.90;;;;;;4994922;28;20501;-54
2022/11/26 11:02:59;;;;;;;23.02;4.10;;;10.80;99.90;;;;;;4995879;28;20030;-43
2022/11/26 11:05:28;;;;;;;21.05;4.82;;;10.80;99.90;;;;;;4994264;28;20038;-45
2022/11/26 11:07:54;;;;;;;16.05;3.85;;;10.70;99.90;;;;;;4995683;28;20382;-44
2022/11/26 11:10:23;;;;;;;15.95;3.90;;;10.70;99.90;;;;;;4996524;28;20033;-46
2022/11/26 11:12:59;;;;;;;19.27;5.05;;;10.70;99.90;;;;;;4986289;28;20022;-44
2022/11/26 11:15:28;;;;;;;15.40;4.57;;;10.60;99.90;;;;;;4983606;28;20087;-45
2022/11/26 11:18:15;;;;;;;14.25;5.05;;;10.60;99.90;;;;;;4975177;28;20070;-51
2022/11/26 11:20:42;;;;;;;;;;;10.60;99.90;;;;;;4976847;28;20042;-45
2022/11/26 11:23:11;;;;;;;15.35;4.55;;;10.70;99.90;;;;;;4987512;28;19914;-36
2022/11/26 11:25:43;;;;;;;25.05;4.25;;;10.70;99.90;;;;;;4984921;28;20029;-48
2022/11/26 11:28:19;;;;;;;13.48;3.72;;;10.80;99.90;;;;;;4970701;28;20042;-44
2022/11/26 11:30:45;;;;;;;22.00;4.78;;;10.80;99.90;;;;;;4990668;28;20046;-49
2022/11/26 11:33:13;;;;;;;14.93;4.22;;;10.90;99.90;;;;;;4994572;28;20485;-45
2022/11/26 11:35:39;;;;;;;20.17;3.72;;;10.80;99.90;;;;;;4996045;28;20027;-48
2022/11/26 11:38:21;;;;;;;23.10;5.88;;;10.90;99.90;;;;;;4995389;28;20085;-45
2022/11/26 11:40:47;;;;;;;29.10;7.72;;;10.90;99.90;;;;;;4995413;28;20029;-48
2022/11/26 11:43:15;;;;;;;17.70;4.10;;;11.00;99.90;;;;;;4995187;28;20026;-45
2022/11/26 11:45:46;;;;;;;22.35;5.32;;;11.00;99.90;;;;;;4972774;28;20482;-42
2022/11/26 11:48:17;;;;;;;39.00;6.53;;;11.00;99.90;;;;;;4982447;28;20394;-45
2022/11/26 11:50:51;;;;;;;15.27;4.88;;;11.00;99.90;;;;;;4995608;28;20031;-46
2022/11/26 11:53:37;;;;;;;15.95;4.03;;;11.00;99.90;;;;;;4994211;28;20494;-47
2022/11/26 11:56:30;;;;;;;12.43;3.35;;;11.10;99.90;;;;;;4993591;28;20022;-45
2022/11/26 11:59:15;;;;;;;17.65;4.35;;;11.10;99.90;;;;;;4994017;28;20035;-49
2022/11/26 12:02:14;;;;;;;19.38;4.00;;;11.10;99.90;;;;;;4994304;28;20045;-47
2022/11/26 12:05:20;;;;;;;8.93;3.33;;;11.20;99.90;;;;;;4990045;28;20526;-45
2022/11/26 12:08:16;;;;;;;15.82;3.35;;;11.30;99.90;;;;;;4977918;28;20026;-45
2022/11/26 12:11:00;;;;;;;25.15;5.47;;;11.30;99.90;;;;;;4993757;28;20537;-47
2022/11/26 12:13:26;;;;;;;11.85;3.72;;;11.30;99.90;;;;;;4994736;28;20505;-46
2022/11/26 12:16:02;;;;;;;13.77;3.95;;;11.30;99.90;;;;;;4993458;28;20022;-47
2022/11/26 12:18:45;;;;;;;19.92;5.20;;;11.30;99.90;;;;;;4993547;28;20030;-51
2022/11/26 12:21:18;;;;;;;11.95;3.30;;;11.30;99.90;;;;;;4994521;28;20031;-44
2022/11/26 12:24:23;;;;;;;16.95;4.15;;;11.30;99.90;;;;;;4994707;28;20057;-38
2022/11/26 12:27:02;;;;;;;20.83;3.38;;;11.30;99.90;;;;;;4954907;28;20042;-44
2022/11/26 12:29:41;;;;;;;14.85;4.68;;;11.30;99.90;;;;;;4995220;28;20385;-47
2022/11/26 12:32:34;;;;;;;16.35;3.67;;;11.30;99.90;;;;;;4995428;28;20490;-47
2022/11/26 12:35:06;;;;;;;15.55;3.92;;;11.30;99.90;;;;;;4995163;28;20471;-46
2022/11/26 12:37:39;;;;;;;7.70;3.38;;;11.30;99.90;;;;;;5001328;28;20461;-45
2022/11/26 12:40:36;;;;;;;26.50;7.05;;;11.30;99.90;;;;;;4996677;28;20431;-46
2022/11/26 12:43:34;;;;;;;13.70;4.10;;;11.40;99.90;;;;;;5006052;28;20142;-46
2022/11/26 12:46:13;;;;;;;23.35;3.95;;;11.50;99.90;;;;;;4971025;28;20038;-46
2022/11/26 12:48:57;;;;;;;10.70;3.92;;;11.40;99.90;;;;;;4995148;28;20034;-47
2022/11/26 12:51:46;;;;;;;11.38;3.33;;;11.40;99.90;;;;;;4960885;28;20047;-45
2022/11/26 12:54:24;;;;;;;7.47;3.05;;;11.50;99.90;;;;;;4985751;28;20031;-45
2022/11/26 12:56:56;;;;;;;9.10;3.28;;;11.50;99.90;;;;;;4977541;28;20082;-46
2022/11/26 12:59:25;;;;;;;17.80;4.68;;;11.50;99.90;;;;;;4987577;28;20027;-47
2022/11/26 13:01:51;;;;;;;9.60;4.07;;;11.50;99.90;;;;;;4991324;28;20431;-45
2022/11/26 13:04:19;;;;;;;11.65;4.05;;;11.60;99.90;;;;;;4994853;28;20109;-45